Time;durP1;ratioP1;P1;durP2;ratioP2;P2;SDS_P1;SDS_P2;PMS_P1;PMS_P2;Temp;Humidity;BMP_temperature;BMP_pressure;BME280_temperature;BME280_humidity;BME280_pressure;Samples;Min_cycle;Max_cycle;Signal;HPM_P1;HPM_P2
2022/07/14 00:02:23;;;;;;;;;;;;;;;;;;5036371;28;19909;-29
2022/07/14 00:04:49;;;;;;;;;;;;;;;;;;5035719;28;20012;-28
2022/07/14 00:07:15;;;;;;;;;;;;;;;;;;5036033;28;20340;-29
2022/07/14 00:09:41;;;;;;;;;;;;;;;;;;5036007;28;19913;-29
2022/07/14 00:12:07;;;;;;;;;;;;;;;;;;5035866;28;19913;-28
2022/07/14 00:14:33;;;;;;;;;;;;;;;;;;5035905;28;19909;-29
2022/07/14 00:16:59;;;;;;;;;;;;;;;;;;5035878;28;20340;-28
2022/07/14 00:19:25;;;;;;;;;;;;;;;;;;5035932;28;19916;-29
2022/07/14 00:21:51;;;;;;;;;;;;;;;;;;5035713;28;19983;-29
2022/07/14 00:24:18;;;;;;;;;;;;;;;;;;5035659;28;19957;-29
2022/07/14 00:26:44;;;;;;;;;;;;;;;;;;5035788;28;20256;-29
2022/07/14 00:29:10;;;;;;;;;;;;;;;;;;5035674;28;19913;-28
2022/07/14 00:31:36;;;;;;;;;;;;;;;;;;5035898;28;20259;-29
2022/07/14 00:34:02;;;;;;;;;;;;;;;;;;5035446;28;19916;-28
2022/07/14 00:36:28;;;;;;;;;;;;;;;;;;5035541;28;19999;-29
2022/07/14 00:38:54;;;;;;;;;;;;;;;;;;5035810;28;19928;-28
2022/07/14 00:41:20;;;;;;;;;;;;;;;;;;5034500;28;20276;-28
2022/07/14 00:43:46;;;;;;;;;;;;;;;;;;5035325;28;19913;-29
2022/07/14 00:46:12;;;;;;;;;;;;;;;;;;5035407;28;20265;-24
2022/07/14 00:48:38;;;;;;;;;;;;;;;;;;5035673;28;19920;-24
2022/07/14 00:51:04;;;;;;;;;;;;;;;;;;5035611;28;20008;-24
2022/07/14 00:53:30;;;;;;;;;;;;;;;;;;5035350;28;20305;-24
2022/07/14 00:55:57;;;;;;;;;;;;;;;;;;5035521;28;19974;-27
2022/07/14 00:58:23;;;;;;;;;;;;;;;;;;5035293;28;19921;-29
2022/07/14 01:00:49;;;;;;;;;;;;;;;;;;5034490;28;19913;-25
2022/07/14 01:03:15;;;;;;;;;;;;;;;;;;5035007;28;19928;-27
2022/07/14 01:05:41;;;;;;;;;;;;;;;;;;5035012;28;19925;-23
2022/07/14 01:08:07;;;;;;;;;;;;;;;;;;5035122;28;20008;-26
2022/07/14 01:10:33;;;;;;;;;;;;;;;;;;5035125;28;19909;-25
2022/07/14 01:12:59;;;;;;;;;;;;;;;;;;5035198;28;20404;-24
2022/07/14 01:15:25;;;;;;;;;;;;;;;;;;5035361;28;19920;-23
2022/07/14 01:17:51;;;;;;;;;;;;;;;;;;5035047;28;19936;-24
2022/07/14 01:20:17;;;;;;;;;;;;;;;;;;5035009;28;19913;-24
2022/07/14 01:22:46;;;;;;;;;;;;;;;;;;5034951;28;19992;-29
2022/07/14 01:25:12;;;;;;;;;;;;;;;;;;5035167;28;19991;-24
2022/07/14 01:27:38;;;;;;;;;;;;;;;;;;5034865;28;19925;-23
2022/07/14 01:30:04;;;;;;;;;;;;;;;;;;5035000;28;19909;-25
2022/07/14 01:32:30;;;;;;;;;;;;;;;;;;5035100;28;19921;-28
2022/07/14 01:34:56;;;;;;;;;;;;;;;;;;5035675;28;19909;-24
2022/07/14 01:37:22;;;;;;;;;;;;;;;;;;5034843;28;20352;-30
2022/07/14 01:39:48;;;;;;;;;;;;;;;;;;5035086;28;19909;-27
2022/07/14 01:42:14;;;;;;;;;;;;;;;;;;5034758;28;20336;-23
2022/07/14 01:44:40;;;;;;;;;;;;;;;;;;5034962;28;19913;-25
2022/07/14 01:47:07;;;;;;;;;;;;;;;;;;5034768;28;19925;-29
2022/07/14 01:49:33;;;;;;;;;;;;;;;;;;5034723;28;19937;-25
2022/07/14 01:51:59;;;;;;;;;;;;;;;;;;5034933;28;20225;-28
2022/07/14 01:54:26;;;;;;;;;;;;;;;;;;5034955;28;20000;-23
2022/07/14 01:56:51;;;;;;;;;;;;;;;;;;5034651;28;19967;-30
2022/07/14 01:59:17;;;;;;;;;;;;;;;;;;5035202;28;19944;-23
2022/07/14 02:01:44;;;;;;;;;;;;;;;;;;5034610;28;20369;-24
2022/07/14 02:04:10;;;;;;;;;;;;;;;;;;5034566;28;19926;-22
2022/07/14 02:06:36;;;;;;;;;;;;;;;;;;5034535;28;20386;-24
2022/07/14 02:09:02;;;;;;;;;;;;;;;;;;5034537;28;19968;-27
2022/07/14 02:14:13;;;;;;;;;;;;;;;;;;5038218;28;19920;-26
2022/07/14 02:16:39;;;;;;;;;;;;;;;;;;5038174;28;19967;-25
2022/07/14 02:19:05;;;;;;;;;;;;;;;;;;5037238;28;20243;-25
2022/07/14 02:21:31;;;;;;;;;;;;;;;;;;5037132;28;20352;-23
2022/07/14 02:23:57;;;;;;;;;;;;;;;;;;5037944;28;19961;-23
2022/07/14 02:26:23;;;;;;;;;;;;;;;;;;5038017;28;19913;-25
2022/07/14 02:28:49;;;;;;;;;;;;;;;;;;5038260;28;19917;-27
2022/07/14 02:31:15;;;;;;;;;;;;;;;;;;5037910;28;19956;-24
2022/07/14 02:33:41;;;;;;;;;;;;;;;;;;5038082;28;19972;-24
2022/07/14 02:36:07;;;;;;;;;;;;;;;;;;5037822;28;19913;-27
2022/07/14 02:38:33;;;;;;;;;;;;;;;;;;5038119;28;19970;-24
2022/07/14 02:41:00;;;;;;;;;;;;;;;;;;5038020;28;19913;-24
2022/07/14 02:43:26;;;;;;;;;;;;;;;;;;5037641;28;19917;-24
2022/07/14 02:45:52;;;;;;;;;;;;;;;;;;5037916;28;20003;-23
2022/07/14 02:48:18;;;;;;;;;;;;;;;;;;5037651;28;19974;-25
2022/07/14 02:50:45;;;;;;;;;;;;;;;;;;5036629;28;19920;-26
2022/07/14 02:53:11;;;;;;;;;;;;;;;;;;5037510;28;19909;-24
2022/07/14 02:55:37;;;;;;;;;;;;;;;;;;5038075;28;20248;-25
2022/07/14 02:58:04;;;;;;;;;;;;;;;;;;5037683;28;20307;-24
2022/07/14 03:00:30;;;;;;;;;;;;;;;;;;5037690;28;19999;-27
2022/07/14 03:02:56;;;;;;;;;;;;;;;;;;5037422;28;20065;-28
2022/07/14 03:05:22;;;;;;;;;;;;;;;;;;5037151;28;19982;-26
2022/07/14 03:07:48;;;;;;;;;;;;;;;;;;5037273;28;19917;-26
2022/07/14 03:10:14;;;;;;;;;;;;;;;;;;5037248;28;20233;-23
2022/07/14 03:12:40;;;;;;;;;;;;;;;;;;5037288;28;19924;-23
2022/07/14 03:15:07;;;;;;;;;;;;;;;;;;5037104;28;20348;-26
2022/07/14 03:17:33;;;;;;;;;;;;;;;;;;5037029;28;20342;-24
2022/07/14 03:20:00;;;;;;;;;;;;;;;;;;5037046;28;19913;-23
2022/07/14 03:22:26;;;;;;;;;;;;;;;;;;5036957;28;20264;-25
2022/07/14 03:24:52;;;;;;;;;;;;;;;;;;5036097;28;20272;-27
2022/07/14 03:27:18;;;;;;;;;;;;;;;;;;5036896;28;19925;-24
2022/07/14 03:29:44;;;;;;;;;;;;;;;;;;5037173;28;19916;-23
2022/07/14 03:32:10;;;;;;;;;;;;;;;;;;5036702;28;19928;-23
2022/07/14 03:34:36;;;;;;;;;;;;;;;;;;5036809;28;20256;-24
2022/07/14 03:37:02;;;;;;;;;;;;;;;;;;5036683;28;19917;-24
2022/07/14 03:39:28;;;;;;;;;;;;;;;;;;5035612;28;19959;-29
2022/07/14 03:41:54;;;;;;;;;;;;;;;;;;5036737;28;19942;-23
2022/07/14 03:44:20;;;;;;;;;;;;;;;;;;5036788;28;19923;-24
2022/07/14 03:46:46;;;;;;;;;;;;;;;;;;5036777;28;19913;-24
2022/07/14 03:49:12;;;;;;;;;;;;;;;;;;5036441;28;19917;-24
2022/07/14 03:51:38;;;;;;;;;;;;;;;;;;5036386;28;20008;-23
2022/07/14 03:54:04;;;;;;;;;;;;;;;;;;5036463;28;19975;-26
2022/07/14 03:56:31;;;;;;;;;;;;;;;;;;5036256;28;19913;-26
2022/07/14 03:58:57;;;;;;;;;;;;;;;;;;5036099;28;19913;-28
2022/07/14 04:01:23;;;;;;;;;;;;;;;;;;5035078;28;20008;-32
2022/07/14 04:03:49;;;;;;;;;;;;;;;;;;5035935;28;19917;-25
2022/07/14 04:06:15;;;;;;;;;;;;;;;;;;5034832;28;20403;-24
2022/07/14 04:08:44;;;;;;;;;;;;;;;;;;5036274;28;19909;-29
2022/07/14 04:11:10;;;;;;;;;;;;;;;;;;5036217;28;19909;-28
2022/07/14 04:13:36;;;;;;;;;;;;;;;;;;5035735;28;19920;-25
2022/07/14 04:16:02;;;;;;;;;;;;;;;;;;5035838;28;19949;-25
2022/07/14 04:18:29;;;;;;;;;;;;;;;;;;5035274;28;19920;-25
2022/07/14 04:20:55;;;;;;;;;;;;;;;;;;5036176;28;20256;-25
2022/07/14 04:23:21;;;;;;;;;;;;;;;;;;5035676;28;19925;-24
2022/07/14 04:25:50;;;;;;;;;;;;;;;;;;5035451;28;19965;-24
2022/07/14 04:28:16;;;;;;;;;;;;;;;;;;5036161;28;19913;-30
2022/07/14 04:30:42;;;;;;;;;;;;;;;;;;5035480;28;19999;-27
2022/07/14 04:33:09;;;;;;;;;;;;;;;;;;5035239;28;20022;-23
2022/07/14 04:35:35;;;;;;;;;;;;;;;;;;5035342;28;19909;-25
2022/07/14 04:38:01;;;;;;;;;;;;;;;;;;5035516;28;19920;-24
2022/07/14 04:40:27;;;;;;;;;;;;;;;;;;5035243;28;19919;-23
2022/07/14 04:42:53;;;;;;;;;;;;;;;;;;5035357;28;19943;-30
2022/07/14 04:45:20;;;;;;;;;;;;;;;;;;5035207;28;19917;-26
2022/07/14 04:47:46;;;;;;;;;;;;;;;;;;5035206;28;19914;-26
2022/07/14 04:52:57;;;;;;;;;;;;;;;;;;5035025;28;20414;-28
2022/07/14 04:55:23;;;;;;;;;;;;;;;;;;5035353;28;19908;-24
2022/07/14 04:57:49;;;;;;;;;;;;;;;;;;5034122;28;19913;-26
2022/07/14 05:00:17;;;;;;;;;;;;;;;;;;5034969;28;20389;-24
2022/07/14 05:02:43;;;;;;;;;;;;;;;;;;5035293;28;19913;-25
2022/07/14 05:05:10;;;;;;;;;;;;;;;;;;5034735;28;20336;-27
2022/07/14 05:07:35;;;;;;;;;;;;;;;;;;5035246;28;20255;-26
2022/07/14 05:10:02;;;;;;;;;;;;;;;;;;5033993;28;19909;-24
2022/07/14 05:12:28;;;;;;;;;;;;;;;;;;5034804;28;19913;-27
2022/07/14 05:14:54;;;;;;;;;;;;;;;;;;5034953;28;19916;-26
2022/07/14 05:17:20;;;;;;;;;;;;;;;;;;5035355;28;20374;-26
2022/07/14 05:19:46;;;;;;;;;;;;;;;;;;5033953;28;19913;-31
2022/07/14 05:22:12;;;;;;;;;;;;;;;;;;5034827;28;19909;-29
2022/07/14 05:24:38;;;;;;;;;;;;;;;;;;5033752;28;20316;-26
2022/07/14 05:27:04;;;;;;;;;;;;;;;;;;5034782;28;19913;-23
2022/07/14 05:29:31;;;;;;;;;;;;;;;;;;5034637;28;19953;-31
2022/07/14 05:31:57;;;;;;;;;;;;;;;;;;5034653;28;20031;-24
2022/07/14 05:34:23;;;;;;;;;;;;;;;;;;5033654;28;20340;-24
2022/07/14 05:36:49;;;;;;;;;;;;;;;;;;5034670;28;19920;-25
2022/07/14 05:39:15;;;;;;;;;;;;;;;;;;5034597;28;20256;-27
2022/07/14 05:41:41;;;;;;;;;;;;;;;;;;5033688;28;19914;-24
2022/07/14 05:44:07;;;;;;;;;;;;;;;;;;5034726;28;19913;-24
2022/07/14 05:46:33;;;;;;;;;;;;;;;;;;5034543;28;20352;-25
2022/07/14 05:49:00;;;;;;;;;;;;;;;;;;5038421;28;19909;-25
2022/07/14 05:51:26;;;;;;;;;;;;;;;;;;5038565;28;20011;-25
2022/07/14 05:53:52;;;;;;;;;;;;;;;;;;5037445;28;19960;-24
2022/07/14 05:56:18;;;;;;;;;;;;;;;;;;5038403;28;19917;-25
2022/07/14 05:58:45;;;;;;;;;;;;;;;;;;5038457;28;20336;-27
2022/07/14 06:03:56;;;;;;;;;;;;;;;;;;5172762;23;19994;-29
2022/07/14 06:06:22;;;;;;;;;;;;;;;;;;5038394;28;19923;-30
2022/07/14 06:08:48;;;;;;;;;;;;;;;;;;5037887;28;19924;-29
2022/07/14 06:11:14;;;;;;;;;;;;;;;;;;5036995;28;19909;-29
2022/07/14 06:13:41;;;;;;;;;;;;;;;;;;5038257;28;19920;-30
2022/07/14 06:16:07;;;;;;;;;;;;;;;;;;5038026;28;19924;-30
2022/07/14 06:18:33;;;;;;;;;;;;;;;;;;5038224;28;19909;-30
2022/07/14 06:20:59;;;;;;;;;;;;;;;;;;5037775;28;20255;-30
2022/07/14 06:23:25;;;;;;;;;;;;;;;;;;5036726;28;19916;-29
2022/07/14 06:25:51;;;;;;;;;;;;;;;;;;5038097;28;19909;-30
2022/07/14 06:28:18;;;;;;;;;;;;;;;;;;5037770;28;19914;-29
2022/07/14 06:30:45;;;;;;;;;;;;;;;;;;5038060;28;19949;-29
2022/07/14 06:33:12;;;;;;;;;;;;;;;;;;5036614;28;19913;-29
2022/07/14 06:35:38;;;;;;;;;;;;;;;;;;5037918;28;20371;-29
2022/07/14 06:38:04;;;;;;;;;;;;;;;;;;5037515;28;19944;-29
2022/07/14 06:40:30;;;;;;;;;;;;;;;;;;5037494;28;19913;-30
2022/07/14 06:42:56;;;;;;;;;;;;;;;;;;5037221;28;20358;-29
2022/07/14 06:45:24;;;;;;;;;;;;;;;;;;5037299;28;19960;-30
2022/07/14 06:47:51;;;;;;;;;;;;;;;;;;5036233;28;19928;-30
2022/07/14 06:53:09;;;;;;;;;;;;;;;;;;5037172;28;20291;-29
2022/07/14 06:55:35;;;;;;;;;;;;;;;;;;5037167;28;20287;-30
2022/07/14 06:58:01;;;;;;;;;;;;;;;;;;5036709;28;19929;-30
2022/07/14 07:00:27;;;;;;;;;;;;;;;;;;5036179;28;20286;-30
2022/07/14 07:02:53;;;;;;;;;;;;;;;;;;5036802;28;19917;-30
2022/07/14 07:08:04;;;;;;;;;;;;;;;;;;5037321;28;20005;-30
2022/07/14 07:10:31;;;;;;;;;;;;;;;;;;5036961;28;20359;-27
2022/07/14 07:12:59;;;;;;;;;;;;;;;;;;5036811;28;20256;-28
2022/07/14 07:18:17;;;;;;;;;;;;;;;;;;5036851;28;19970;-28
2022/07/14 07:20:45;;;;;;;;;;;;;;;;;;5036991;28;19913;-28
2022/07/14 07:23:12;;;;;;;;;;;;;;;;;;5036616;28;20398;-28
2022/07/14 07:25:40;;;;;;;;;;;;;;;;;;5036968;28;20008;-28
2022/07/14 07:28:06;;;;;;;;;;;;;;;;;;5036700;28;20267;-27
2022/07/14 07:30:32;;;;;;;;;;;;;;;;;;5036705;28;19909;-30
2022/07/14 07:32:58;;;;;;;;;;;;;;;;;;5036475;28;19921;-30
2022/07/14 07:35:24;;;;;;;;;;;;;;;;;;5036439;28;20299;-30
2022/07/14 07:37:52;;;;;;;;;;;;;;;;;;5036248;28;19924;-27
2022/07/14 07:40:23;;;;;;;;;;;;;;;;;;5036901;28;19960;-28
2022/07/14 07:42:49;;;;;;;;;;;;;;;;;;5036137;28;19975;-29
2022/07/14 07:45:15;;;;;;;;;;;;;;;;;;5036058;28;19920;-28
2022/07/14 07:47:41;;;;;;;;;;;;;;;;;;5036163;28;19917;-31
2022/07/14 07:50:08;;;;;;;;;;;;;;;;;;5036145;28;19909;-30
2022/07/14 07:55:30;;;;;;;;;;;;;;;;;;5036129;28;19980;-27
2022/07/14 07:57:59;;;;;;;;;;;;;;;;;;5036282;28;20046;-28
2022/07/14 08:00:26;;;;;;;;;;;;;;;;;;5035124;28;20046;-28
2022/07/14 08:02:53;;;;;;;;;;;;;;;;;;5033392;28;19924;-30
2022/07/14 08:05:22;;;;;;;;;;;;;;;;;;5036170;28;19917;-27
2022/07/14 08:07:52;;;;;;;;;;;;;;;;;;5035866;28;19953;-27
2022/07/14 08:10:24;;;;;;;;;;;;;;;;;;5035324;28;19971;-28
2022/07/14 08:12:52;;;;;;;;;;;;;;;;;;5035773;28;19912;-28
2022/07/14 08:15:19;;;;;;;;;;;;;;;;;;5035590;28;19909;-28
2022/07/14 08:17:46;;;;;;;;;;;;;;;;;;5035849;28;19913;-29
2022/07/14 08:20:12;;;;;;;;;;;;;;;;;;5035517;28;19968;-28
2022/07/14 08:22:38;;;;;;;;;;;;;;;;;;5035382;28;19966;-27
2022/07/14 08:25:04;;;;;;;;;;;;;;;;;;5034224;28;19912;-28
2022/07/14 08:27:30;;;;;;;;;;;;;;;;;;5035546;28;19939;-27
2022/07/14 08:29:56;;;;;;;;;;;;;;;;;;5035191;28;19923;-29
2022/07/14 08:32:22;;;;;;;;;;;;;;;;;;5035136;28;20240;-29
2022/07/14 08:34:49;;;;;;;;;;;;;;;;;;5035195;28;19913;-29
2022/07/14 08:37:18;;;;;;;;;;;;;;;;;;5035382;28;19941;-29
2022/07/14 08:39:44;;;;;;;;;;;;;;;;;;5035302;28;19913;-29
2022/07/14 08:42:10;;;;;;;;;;;;;;;;;;5034160;28;19913;-29
2022/07/14 08:44:38;;;;;;;;;;;;;;;;;;5035224;28;20046;-29
2022/07/14 08:47:04;;;;;;;;;;;;;;;;;;5035092;28;19971;-29
2022/07/14 08:49:30;;;;;;;;;;;;;;;;;;5035121;28;19999;-28
2022/07/14 08:51:56;;;;;;;;;;;;;;;;;;5035087;28;19978;-29
2022/07/14 08:54:22;;;;;;;;;;;;;;;;;;5035166;28;19913;-29
2022/07/14 08:56:48;;;;;;;;;;;;;;;;;;5035066;28;20311;-29
2022/07/14 08:59:14;;;;;;;;;;;;;;;;;;5034999;28;19909;-29
2022/07/14 09:01:40;;;;;;;;;;;;;;;;;;5034999;28;19917;-28
2022/07/14 09:04:06;;;;;;;;;;;;;;;;;;5034722;28;20012;-28
2022/07/14 09:06:32;;;;;;;;;;;;;;;;;;5033978;28;19957;-29
2022/07/14 09:08:58;;;;;;;;;;;;;;;;;;5035095;28;19940;-28
2022/07/14 09:11:24;;;;;;;;;;;;;;;;;;5034876;28;20365;-28
2022/07/14 09:13:50;;;;;;;;;;;;;;;;;;5034806;28;19917;-29
2022/07/14 09:16:17;;;;;;;;;;;;;;;;;;5034838;28;19945;-29
2022/07/14 09:18:43;;;;;;;;;;;;;;;;;;5034745;28;19924;-28
2022/07/14 09:21:09;;;;;;;;;;;;;;;;;;5034404;28;19950;-28
2022/07/14 09:23:35;;;;;;;;;;;;;;;;;;5033901;28;19948;-29
2022/07/14 09:26:01;;;;;;;;;;;;;;;;;;5034522;28;19924;-29
2022/07/14 09:28:27;;;;;;;;;;;;;;;;;;5033375;28;20011;-29
2022/07/14 09:30:53;;;;;;;;;;;;;;;;;;5033433;28;19955;-28
2022/07/14 09:33:19;;;;;;;;;;;;;;;;;;5034358;28;20012;-29
2022/07/14 09:35:45;;;;;;;;;;;;;;;;;;5034478;28;19909;-29
2022/07/14 09:38:11;;;;;;;;;;;;;;;;;;5034662;28;19978;-28
2022/07/14 09:43:30;;;;;;;;;;;;;;;;;;5034431;28;19960;-29
2022/07/14 09:45:58;;;;;;;;;;;;;;;;;;5033716;28;20242;-29
2022/07/14 09:48:24;;;;;;;;;;;;;;;;;;5035048;28;19917;-29
2022/07/14 09:50:51;;;;;;;;;;;;;;;;;;5034638;28;19909;-29
2022/07/14 09:53:17;;;;;;;;;;;;;;;;;;5034554;28;19913;-29
2022/07/14 09:55:46;;;;;;;;;;;;;;;;;;5034345;28;19913;-29
2022/07/14 09:58:12;;;;;;;;;;;;;;;;;;5034559;28;19914;-28
2022/07/14 10:00:38;;;;;;;;;;;;;;;;;;5034577;28;19960;-29
2022/07/14 10:03:04;;;;;;;;;;;;;;;;;;5034290;28;19917;-28
2022/07/14 10:05:30;;;;;;;;;;;;;;;;;;5034704;28;20343;-28
2022/07/14 10:07:56;;;;;;;;;;;;;;;;;;5034578;28;19913;-29
2022/07/14 10:10:22;;;;;;;;;;;;;;;;;;5034773;28;19937;-29
2022/07/14 10:12:48;;;;;;;;;;;;;;;;;;5034328;28;19913;-29
2022/07/14 10:15:14;;;;;;;;;;;;;;;;;;5034371;28;19913;-29
2022/07/14 10:17:40;;;;;;;;;;;;;;;;;;5034399;28;19917;-28
2022/07/14 10:20:09;;;;;;;;;;;;;;;;;;5034507;28;19909;-29
2022/07/14 10:22:35;;;;;;;;;;;;;;;;;;5034167;28;20340;-29
2022/07/14 10:25:02;;;;;;;;;;;;;;;;;;5033946;28;20229;-28
2022/07/14 10:27:36;;;;;;;;;;;;;;;;;;5034165;28;19913;-29
2022/07/14 10:30:02;;;;;;;;;;;;;;;;;;5034236;28;19909;-29
2022/07/14 10:32:29;;;;;;;;;;;;;;;;;;5034244;28;19940;-29
2022/07/14 10:34:55;;;;;;;;;;;;;;;;;;5037893;28;19995;-29
2022/07/14 10:37:21;;;;;;;;;;;;;;;;;;5037872;28;19913;-29
2022/07/14 10:39:47;;;;;;;;;;;;;;;;;;5037832;28;20356;-28
2022/07/14 10:42:13;;;;;;;;;;;;;;;;;;5037996;28;19971;-29
2022/07/14 10:44:40;;;;;;;;;;;;;;;;;;5036579;28;19917;-29
2022/07/14 10:47:06;;;;;;;;;;;;;;;;;;5037895;28;20365;-30
2022/07/14 10:49:32;;;;;;;;;;;;;;;;;;5037578;28;20213;-28
2022/07/14 10:51:58;;;;;;;;;;;;;;;;;;5037627;28;19924;-29
2022/07/14 10:54:24;;;;;;;;;;;;;;;;;;5037206;28;20430;-29
2022/07/14 10:56:50;;;;;;;;;;;;;;;;;;5037287;28;19917;-29
2022/07/14 10:59:16;;;;;;;;;;;;;;;;;;5037701;28;19910;-28
2022/07/14 11:01:42;;;;;;;;;;;;;;;;;;5037368;28;19913;-29
2022/07/14 11:04:09;;;;;;;;;;;;;;;;;;5036157;28;19921;-29
2022/07/14 11:06:35;;;;;;;;;;;;;;;;;;5037392;28;20419;-29
2022/07/14 11:09:01;;;;;;;;;;;;;;;;;;5037511;28;19995;-28
2022/07/14 11:11:28;;;;;;;;;;;;;;;;;;5037074;28;19924;-28
2022/07/14 11:13:54;;;;;;;;;;;;;;;;;;5037089;28;20360;-29
2022/07/14 11:16:20;;;;;;;;;;;;;;;;;;5037118;28;19916;-28
2022/07/14 11:21:37;;;;;;;;;;;;;;;;;;5037090;28;19923;-30
2022/07/14 11:24:03;;;;;;;;;;;;;;;;;;5036665;28;20011;-29
2022/07/14 11:26:29;;;;;;;;;;;;;;;;;;5036889;28;19924;-29
2022/07/14 11:28:55;;;;;;;;;;;;;;;;;;5036980;28;19940;-29
2022/07/14 11:31:21;;;;;;;;;;;;;;;;;;5036942;28;19966;-29
2022/07/14 11:36:34;;;;;;;;;;;;;;;;;;5036545;28;19940;-29
2022/07/14 11:39:00;;;;;;;;;;;;;;;;;;5036922;28;20259;-29
2022/07/14 11:41:26;;;;;;;;;;;;;;;;;;5036314;28;19913;-28
2022/07/14 11:43:53;;;;;;;;;;;;;;;;;;5036098;28;19924;-29
2022/07/14 11:46:20;;;;;;;;;;;;;;;;;;5036476;28;19913;-29
2022/07/14 11:48:48;;;;;;;;;;;;;;;;;;5036245;28;20407;-29
2022/07/14 11:51:15;;;;;;;;;;;;;;;;;;5036531;28;19976;-29
2022/07/14 11:53:41;;;;;;;;;;;;;;;;;;5035081;28;19917;-29
2022/07/14 11:56:07;;;;;;;;;;;;;;;;;;5036314;28;19913;-29
2022/07/14 11:58:35;;;;;;;;;;;;;;;;;;5035810;28;19913;-29
2022/07/14 12:01:01;;;;;;;;;;;;;;;;;;5036197;28;19971;-29
2022/07/14 12:03:27;;;;;;;;;;;;;;;;;;5035630;28;19925;-29
2022/07/14 12:05:53;;;;;;;;;;;;;;;;;;5036198;28;20225;-29
2022/07/14 12:08:19;;;;;;;;;;;;;;;;;;5035834;28;19913;-29
2022/07/14 12:10:46;;;;;;;;;;;;;;;;;;5036087;28;20243;-29
2022/07/14 12:13:12;;;;;;;;;;;;;;;;;;5035749;28;19914;-29
2022/07/14 12:15:38;;;;;;;;;;;;;;;;;;5035652;28;20007;-28
2022/07/14 12:18:05;;;;;;;;;;;;;;;;;;5035875;28;19924;-30
2022/07/14 12:20:31;;;;;;;;;;;;;;;;;;5034592;28;19924;-28
2022/07/14 12:22:57;;;;;;;;;;;;;;;;;;5035835;28;19916;-29
2022/07/14 12:25:24;;;;;;;;;;;;;;;;;;5035608;28;19917;-29
2022/07/14 12:27:50;;;;;;;;;;;;;;;;;;5035927;28;19964;-29
2022/07/14 12:30:16;;;;;;;;;;;;;;;;;;5035567;28;19913;-29
2022/07/14 12:32:42;;;;;;;;;;;;;;;;;;5035496;28;19913;-29
2022/07/14 12:35:08;;;;;;;;;;;;;;;;;;5035564;28;19916;-29
2022/07/14 12:37:34;;;;;;;;;;;;;;;;;;5035495;28;19913;-31
2022/07/14 12:40:00;;;;;;;;;;;;;;;;;;5035618;28;19913;-29
2022/07/14 12:42:27;;;;;;;;;;;;;;;;;;5034269;28;20288;-29
2022/07/14 12:44:53;;;;;;;;;;;;;;;;;;5035154;28;19917;-29
2022/07/14 12:47:19;;;;;;;;;;;;;;;;;;5035456;28;20286;-29
2022/07/14 12:49:45;;;;;;;;;;;;;;;;;;5035168;28;19913;-29
2022/07/14 12:52:11;;;;;;;;;;;;;;;;;;5035029;28;19970;-29
2022/07/14 12:54:37;;;;;;;;;;;;;;;;;;5035343;28;19944;-29
2022/07/14 12:57:03;;;;;;;;;;;;;;;;;;5034192;28;20355;-28
2022/07/14 12:59:29;;;;;;;;;;;;;;;;;;5035053;28;19956;-29
2022/07/14 13:01:56;;;;;;;;;;;;;;;;;;5035130;28;20348;-28
2022/07/14 13:04:22;;;;;;;;;;;;;;;;;;5034869;28;19961;-28
2022/07/14 13:06:48;;;;;;;;;;;;;;;;;;5035143;28;19971;-29
2022/07/14 13:09:14;;;;;;;;;;;;;;;;;;5034891;28;19909;-29
2022/07/14 13:11:41;;;;;;;;;;;;;;;;;;5035185;28;19924;-29
2022/07/14 13:14:08;;;;;;;;;;;;;;;;;;5035227;28;19966;-29
2022/07/14 13:16:34;;;;;;;;;;;;;;;;;;5035263;28;19910;-29
2022/07/14 13:19:00;;;;;;;;;;;;;;;;;;5034837;28;19913;-29
2022/07/14 13:21:26;;;;;;;;;;;;;;;;;;5035214;28;19909;-29
2022/07/14 13:23:52;;;;;;;;;;;;;;;;;;5034740;28;19928;-29
2022/07/14 13:26:18;;;;;;;;;;;;;;;;;;5035313;28;20295;-29
2022/07/14 13:28:44;;;;;;;;;;;;;;;;;;5034901;28;19913;-29
2022/07/14 13:31:10;;;;;;;;;;;;;;;;;;5035061;28;19913;-28
2022/07/14 13:33:36;;;;;;;;;;;;;;;;;;5034812;28;19916;-28
2022/07/14 13:36:02;;;;;;;;;;;;;;;;;;5035023;28;19975;-29
2022/07/14 13:38:28;;;;;;;;;;;;;;;;;;5034715;28;19910;-29
2022/07/14 13:40:54;;;;;;;;;;;;;;;;;;5034758;28;19952;-29
2022/07/14 13:43:20;;;;;;;;;;;;;;;;;;5033561;28;20325;-29
2022/07/14 13:45:46;;;;;;;;;;;;;;;;;;5034818;28;19956;-29
2022/07/14 13:48:12;;;;;;;;;;;;;;;;;;5034990;28;20343;-28
2022/07/14 13:53:23;;;;;;;;;;;;;;;;;;5034871;28;19970;-29
2022/07/14 13:55:49;;;;;;;;;;;;;;;;;;5034654;28;20349;-29
2022/07/14 13:58:15;;;;;;;;;;;;;;;;;;5034860;28;19959;-29
2022/07/14 14:00:41;;;;;;;;;;;;;;;;;;5034532;28;19913;-29
2022/07/14 14:03:26;;;;;;;;;;;;;;;;;;5034169;28;20430;-29
2022/07/14 14:05:52;;;;;;;;;;;;;;;;;;5034582;28;19918;-28
2022/07/14 14:08:18;;;;;;;;;;;;;;;;;;5035643;28;19913;-27
2022/07/14 14:10:44;;;;;;;;;;;;;;;;;;5038688;28;20344;-29
2022/07/14 14:13:10;;;;;;;;;;;;;;;;;;5038196;28;20352;-29
2022/07/14 14:15:36;;;;;;;;;;;;;;;;;;5038259;28;19915;-28
2022/07/14 14:18:04;;;;;;;;;;;;;;;;;;5036601;28;20536;-29
2022/07/14 14:20:30;;;;;;;;;;;;;;;;;;5038178;28;19917;-29
2022/07/14 14:22:56;;;;;;;;;;;;;;;;;;5038288;28;19905;-29
2022/07/14 14:25:22;;;;;;;;;;;;;;;;;;5036935;28;19928;-29
2022/07/14 14:27:48;;;;;;;;;;;;;;;;;;5037016;28;19920;-29
2022/07/14 14:30:14;;;;;;;;;;;;;;;;;;5036923;28;19920;-29
2022/07/14 14:32:40;;;;;;;;;;;;;;;;;;5037756;28;20456;-28
2022/07/14 14:35:06;;;;;;;;;;;;;;;;;;5038056;28;19999;-29
2022/07/14 14:37:32;;;;;;;;;;;;;;;;;;5037723;28;19940;-29
2022/07/14 14:39:59;;;;;;;;;;;;;;;;;;5037688;28;19967;-29
2022/07/14 14:42:25;;;;;;;;;;;;;;;;;;5037781;28;20008;-29
2022/07/14 14:44:51;;;;;;;;;;;;;;;;;;5036625;28;19948;-33
2022/07/14 14:47:17;;;;;;;;;;;;;;;;;;5037667;28;20307;-28
2022/07/14 14:49:53;;;;;;;;;;;;;;;;;;5037575;28;19909;-29
2022/07/14 14:52:19;;;;;;;;;;;;;;;;;;5037764;28;19924;-29
2022/07/14 14:54:45;;;;;;;;;;;;;;;;;;5037506;28;19909;-29
2022/07/14 14:57:11;;;;;;;;;;;;;;;;;;5037410;28;19917;-29
2022/07/14 14:59:37;;;;;;;;;;;;;;;;;;5037403;28;20276;-29
2022/07/14 15:02:03;;;;;;;;;;;;;;;;;;5037500;28;19916;-30
2022/07/14 15:04:29;;;;;;;;;;;;;;;;;;5037103;28;19932;-28
2022/07/14 15:06:55;;;;;;;;;;;;;;;;;;5037753;28;20016;-29
2022/07/14 15:09:22;;;;;;;;;;;;;;;;;;5036247;28;19917;-29
2022/07/14 15:11:48;;;;;;;;;;;;;;;;;;5037059;28;19944;-29
2022/07/14 15:14:14;;;;;;;;;;;;;;;;;;5037131;28;19948;-28
2022/07/14 15:16:40;;;;;;;;;;;;;;;;;;5036125;28;19971;-29
2022/07/14 15:19:06;;;;;;;;;;;;;;;;;;5036905;28;19937;-29
2022/07/14 15:21:32;;;;;;;;;;;;;;;;;;5036376;28;20004;-29
2022/07/14 15:23:58;;;;;;;;;;;;;;;;;;5036810;28;19924;-29
2022/07/14 15:26:24;;;;;;;;;;;;;;;;;;5036984;28;19984;-28
2022/07/14 15:28:50;;;;;;;;;;;;;;;;;;5037128;28;19953;-28
2022/07/14 15:31:17;;;;;;;;;;;;;;;;;;5036905;28;19945;-29
2022/07/14 15:33:43;;;;;;;;;;;;;;;;;;5037104;28;20260;-29
2022/07/14 15:36:09;;;;;;;;;;;;;;;;;;5036810;28;19909;-29
2022/07/14 15:41:14;;;;;;;;;;;;;;;;;;5036745;28;19913;-28
2022/07/14 15:41:21;;;;;;;;;;;;;;;;;;5036566;28;19928;-29
2022/07/14 15:43:47;;;;;;;;;;;;;;;;;;5036431;28;19913;-29
2022/07/14 15:46:13;;;;;;;;;;;;;;;;;;5036532;28;20374;-29
2022/07/14 15:48:39;;;;;;;;;;;;;;;;;;5036398;28;20008;-29
2022/07/14 15:51:06;;;;;;;;;;;;;;;;;;5036677;28;19956;-29
2022/07/14 15:53:31;;;;;;;;;;;;;;;;;;5036293;28;20388;-29
2022/07/14 15:55:57;;;;;;;;;;;;;;;;;;5036363;28;20008;-29
2022/07/14 15:58:23;;;;;;;;;;;;;;;;;;5036526;28;19964;-29
2022/07/14 16:00:49;;;;;;;;;;;;;;;;;;5036333;28;20263;-29
2022/07/14 16:03:15;;;;;;;;;;;;;;;;;;5035558;28;19921;-29
2022/07/14 16:05:41;;;;;;;;;;;;;;;;;;5034305;28;19917;-28
2022/07/14 16:08:09;;;;;;;;;;;;;;;;;;5034298;28;19920;-29
2022/07/14 16:10:36;;;;;;;;;;;;;;;;;;5035293;28;19909;-29
2022/07/14 16:13:02;;;;;;;;;;;;;;;;;;5035248;28;19913;-29
2022/07/14 16:15:28;;;;;;;;;;;;;;;;;;5035199;28;20359;-29
2022/07/14 16:17:54;;;;;;;;;;;;;;;;;;5035196;28;19913;-29
2022/07/14 16:20:21;;;;;;;;;;;;;;;;;;5035374;28;19909;-28
2022/07/14 16:22:48;;;;;;;;;;;;;;;;;;5035022;28;20011;-29
2022/07/14 16:25:14;;;;;;;;;;;;;;;;;;5035342;28;19913;-29
2022/07/14 16:27:40;;;;;;;;;;;;;;;;;;5034953;28;19995;-29
2022/07/14 16:30:06;;;;;;;;;;;;;;;;;;5035015;28;19910;-29
2022/07/14 16:32:32;;;;;;;;;;;;;;;;;;5034497;28;20344;-29
2022/07/14 16:34:58;;;;;;;;;;;;;;;;;;5034930;28;20000;-28
2022/07/14 16:37:24;;;;;;;;;;;;;;;;;;5034848;28;19913;-28
2022/07/14 16:39:50;;;;;;;;;;;;;;;;;;5034845;28;19920;-29
2022/07/14 16:42:16;;;;;;;;;;;;;;;;;;5034919;28;19956;-29
2022/07/14 16:44:42;;;;;;;;;;;;;;;;;;5033689;28;19945;-29
2022/07/14 16:47:08;;;;;;;;;;;;;;;;;;5034955;28;19913;-29
2022/07/14 16:49:34;;;;;;;;;;;;;;;;;;5034592;28;20056;-29
2022/07/14 16:52:00;;;;;;;;;;;;;;;;;;5034738;28;20045;-28
2022/07/14 16:54:26;;;;;;;;;;;;;;;;;;5034530;28;19913;-29
2022/07/14 16:56:52;;;;;;;;;;;;;;;;;;5034487;28;20254;-29
2022/07/14 16:59:18;;;;;;;;;;;;;;;;;;5034418;28;19909;-28
2022/07/14 17:01:44;;;;;;;;;;;;;;;;;;5034331;28;19913;-29
2022/07/14 17:04:10;;;;;;;;;;;;;;;;;;4963956;28;2024143;-29
2022/07/14 17:06:37;;;;;;;;;;;;;;;;;;5035417;28;20299;-29
2022/07/14 17:09:02;;;;;;;;;;;;;;;;;;5035052;28;19936;-29
2022/07/14 17:11:29;;;;;;;;;;;;;;;;;;5034916;28;19910;-30